sensor_id;sensor_type;location;lat;lon;timestamp;P1;durP1;ratioP1;P2;durP2;ratioP2
817;SDS011;391;51.052;6.954;2023-04-03T00:00:41;3.90;;;3.60;;
817;SDS011;391;51.052;6.954;2023-04-03T00:02:45;4.20;;;3.90;;
817;SDS011;391;51.052;6.954;2023-04-03T00:04:49;4.90;;;4.50;;
817;SDS011;391;51.052;6.954;2023-04-03T00:06:54;4.33;;;3.93;;
817;SDS011;391;51.052;6.954;2023-04-03T00:08:58;4.40;;;4.00;;
817;SDS011;391;51.052;6.954;2023-04-03T00:11:02;4.73;;;4.33;;
817;SDS011;391;51.052;6.954;2023-04-03T00:13:07;5.38;;;4.88;;
817;SDS011;391;51.052;6.954;2023-04-03T00:15:10;5.20;;;4.65;;
817;SDS011;391;51.052;6.954;2023-04-03T00:17:14;4.95;;;4.55;;
817;SDS011;391;51.052;6.954;2023-04-03T00:19:17;5.15;;;4.75;;
817;SDS011;391;51.052;6.954;2023-04-03T00:21:21;5.55;;;4.43;;
817;SDS011;391;51.052;6.954;2023-04-03T00:23:26;4.90;;;4.50;;
817;SDS011;391;51.052;6.954;2023-04-03T00:25:30;4.15;;;3.75;;
817;SDS011;391;51.052;6.954;2023-04-03T00:27:35;4.00;;;3.70;;
817;SDS011;391;51.052;6.954;2023-04-03T00:29:39;5.53;;;5.03;;
817;SDS011;391;51.052;6.954;2023-04-03T00:31:43;4.43;;;4.00;;
817;SDS011;391;51.052;6.954;2023-04-03T00:33:47;4.03;;;3.70;;
817;SDS011;391;51.052;6.954;2023-04-03T00:35:50;5.50;;;5.00;;
817;SDS011;391;51.052;6.954;2023-04-03T00:37:55;5.73;;;5.23;;
817;SDS011;391;51.052;6.954;2023-04-03T00:40:01;5.30;;;4.83;;
817;SDS011;391;51.052;6.954;2023-04-03T00:42:06;4.60;;;4.20;;
817;SDS011;391;51.052;6.954;2023-04-03T00:44:22;4.67;;;4.27;;
817;SDS011;391;51.052;6.954;2023-04-03T00:46:46;5.23;;;4.83;;
817;SDS011;391;51.052;6.954;2023-04-03T00:48:49;5.03;;;4.63;;
817;SDS011;391;51.052;6.954;2023-04-03T00:50:53;4.40;;;4.10;;
817;SDS011;391;51.052;6.954;2023-04-03T00:52:58;5.00;;;4.53;;
817;SDS011;391;51.052;6.954;2023-04-03T00:55:04;4.20;;;3.85;;
817;SDS011;391;51.052;6.954;2023-04-03T00:57:10;5.60;;;4.70;;
817;SDS011;391;51.052;6.954;2023-04-03T00:59:16;4.60;;;4.20;;
817;SDS011;391;51.052;6.954;2023-04-03T01:01:26;4.70;;;4.28;;
817;SDS011;391;51.052;6.954;2023-04-03T01:03:33;4.47;;;3.45;;
817;SDS011;391;51.052;6.954;2023-04-03T01:05:38;5.05;;;4.55;;
817;SDS011;391;51.052;6.954;2023-04-03T01:07:43;3.95;;;3.55;;
817;SDS011;391;51.052;6.954;2023-04-03T01:09:48;4.72;;;4.32;;
817;SDS011;391;51.052;6.954;2023-04-03T01:12:08;4.83;;;4.43;;
817;SDS011;391;51.052;6.954;2023-04-03T01:14:16;4.90;;;4.50;;
817;SDS011;391;51.052;6.954;2023-04-03T01:16:20;3.78;;;3.42;;
817;SDS011;391;51.052;6.954;2023-04-03T01:18:24;3.35;;;3.05;;
817;SDS011;391;51.052;6.954;2023-04-03T01:20:44;3.97;;;3.67;;
817;SDS011;391;51.052;6.954;2023-04-03T01:23:04;3.80;;;3.47;;
817;SDS011;391;51.052;6.954;2023-04-03T01:25:15;5.30;;;4.90;;
817;SDS011;391;51.052;6.954;2023-04-03T01:27:20;8.20;;;5.87;;
817;SDS011;391;51.052;6.954;2023-04-03T01:29:24;14.02;;;11.13;;
817;SDS011;391;51.052;6.954;2023-04-03T01:31:29;12.65;;;11.35;;
817;SDS011;391;51.052;6.954;2023-04-03T01:33:38;9.40;;;8.50;;
817;SDS011;391;51.052;6.954;2023-04-03T01:35:42;7.75;;;6.82;;
817;SDS011;391;51.052;6.954;2023-04-03T01:37:46;6.50;;;5.90;;
817;SDS011;391;51.052;6.954;2023-04-03T01:39:50;5.85;;;5.45;;
817;SDS011;391;51.052;6.954;2023-04-03T01:41:53;6.03;;;5.43;;
817;SDS011;391;51.052;6.954;2023-04-03T01:44:07;4.95;;;4.55;;
817;SDS011;391;51.052;6.954;2023-04-03T01:46:11;5.57;;;5.03;;
817;SDS011;391;51.052;6.954;2023-04-03T01:48:15;4.57;;;4.28;;
817;SDS011;391;51.052;6.954;2023-04-03T01:50:20;3.92;;;3.58;;
817;SDS011;391;51.052;6.954;2023-04-03T01:52:24;4.60;;;4.20;;
817;SDS011;391;51.052;6.954;2023-04-03T01:54:28;4.38;;;4.05;;
817;SDS011;391;51.052;6.954;2023-04-03T01:56:31;5.25;;;4.85;;
817;SDS011;391;51.052;6.954;2023-04-03T01:58:34;4.60;;;4.30;;
817;SDS011;391;51.052;6.954;2023-04-03T02:00:38;5.10;;;4.70;;
817;SDS011;391;51.052;6.954;2023-04-03T02:02:42;4.45;;;4.05;;
817;SDS011;391;51.052;6.954;2023-04-03T02:04:46;4.65;;;4.25;;
817;SDS011;391;51.052;6.954;2023-04-03T02:06:50;5.00;;;4.60;;
817;SDS011;391;51.052;6.954;2023-04-03T02:08:54;4.35;;;4.05;;
817;SDS011;391;51.052;6.954;2023-04-03T02:10:58;4.50;;;4.10;;
817;SDS011;391;51.052;6.954;2023-04-03T02:13:02;5.20;;;4.70;;
817;SDS011;391;51.052;6.954;2023-04-03T02:15:10;5.03;;;4.63;;
817;SDS011;391;51.052;6.954;2023-04-03T02:17:13;4.63;;;4.22;;
817;SDS011;391;51.052;6.954;2023-04-03T02:19:17;4.25;;;3.95;;
817;SDS011;391;51.052;6.954;2023-04-03T02:21:20;3.45;;;3.15;;
817;SDS011;391;51.052;6.954;2023-04-03T02:23:25;4.43;;;4.10;;
817;SDS011;391;51.052;6.954;2023-04-03T02:25:29;3.65;;;3.35;;
817;SDS011;391;51.052;6.954;2023-04-03T02:27:35;3.63;;;3.30;;
817;SDS011;391;51.052;6.954;2023-04-03T02:29:39;3.80;;;3.25;;
817;SDS011;391;51.052;6.954;2023-04-03T02:31:43;3.20;;;3.00;;
817;SDS011;391;51.052;6.954;2023-04-03T02:33:48;4.95;;;3.30;;
817;SDS011;391;51.052;6.954;2023-04-03T02:35:52;4.72;;;4.00;;
817;SDS011;391;51.052;6.954;2023-04-03T02:37:57;3.22;;;3.00;;
817;SDS011;391;51.052;6.954;2023-04-03T02:40:02;3.70;;;3.40;;
817;SDS011;391;51.052;6.954;2023-04-03T02:42:06;3.80;;;3.28;;
817;SDS011;391;51.052;6.954;2023-04-03T02:44:11;3.80;;;3.50;;
817;SDS011;391;51.052;6.954;2023-04-03T02:46:15;3.85;;;3.20;;
817;SDS011;391;51.052;6.954;2023-04-03T02:48:19;3.67;;;3.30;;
817;SDS011;391;51.052;6.954;2023-04-03T02:50:22;5.35;;;3.92;;
817;SDS011;391;51.052;6.954;2023-04-03T02:52:26;4.15;;;3.15;;
817;SDS011;391;51.052;6.954;2023-04-03T02:54:32;3.45;;;2.88;;
817;SDS011;391;51.052;6.954;2023-04-03T02:56:40;4.00;;;3.60;;
817;SDS011;391;51.052;6.954;2023-04-03T02:58:44;3.93;;;3.53;;
817;SDS011;391;51.052;6.954;2023-04-03T03:00:48;3.28;;;2.83;;
817;SDS011;391;51.052;6.954;2023-04-03T03:02:52;3.50;;;3.17;;
817;SDS011;391;51.052;6.954;2023-04-03T03:04:55;3.42;;;3.13;;
817;SDS011;391;51.052;6.954;2023-04-03T03:06:59;3.53;;;3.03;;
817;SDS011;391;51.052;6.954;2023-04-03T03:09:03;2.90;;;2.65;;
817;SDS011;391;51.052;6.954;2023-04-03T03:11:07;4.10;;;3.77;;
817;SDS011;391;51.052;6.954;2023-04-03T03:13:13;3.80;;;3.50;;
817;SDS011;391;51.052;6.954;2023-04-03T03:15:16;3.65;;;2.97;;
817;SDS011;391;51.052;6.954;2023-04-03T03:17:21;3.90;;;3.50;;
817;SDS011;391;51.052;6.954;2023-04-03T03:19:25;3.60;;;3.30;;
817;SDS011;391;51.052;6.954;2023-04-03T03:21:29;3.38;;;3.10;;
817;SDS011;391;51.052;6.954;2023-04-03T03:23:35;4.43;;;3.20;;
817;SDS011;391;51.052;6.954;2023-04-03T03:25:39;3.50;;;3.20;;
817;SDS011;391;51.052;6.954;2023-04-03T03:27:43;3.67;;;3.38;;
817;SDS011;391;51.052;6.954;2023-04-03T03:29:49;3.50;;;3.20;;
817;SDS011;391;51.052;6.954;2023-04-03T03:31:52;3.88;;;3.58;;
817;SDS011;391;51.052;6.954;2023-04-03T03:33:56;3.07;;;2.77;;
817;SDS011;391;51.052;6.954;2023-04-03T03:35:59;3.80;;;3.47;;
817;SDS011;391;51.052;6.954;2023-04-03T03:38:04;3.72;;;3.05;;
817;SDS011;391;51.052;6.954;2023-04-03T03:40:08;3.35;;;3.05;;
817;SDS011;391;51.052;6.954;2023-04-03T03:42:14;10.67;;;8.33;;
817;SDS011;391;51.052;6.954;2023-04-03T03:44:18;9.43;;;6.77;;
817;SDS011;391;51.052;6.954;2023-04-03T03:46:23;8.65;;;7.75;;
817;SDS011;391;51.052;6.954;2023-04-03T03:48:28;9.77;;;7.30;;
817;SDS011;391;51.052;6.954;2023-04-03T03:50:32;14.95;;;7.40;;
817;SDS011;391;51.052;6.954;2023-04-03T03:52:35;21.13;;;9.80;;
817;SDS011;391;51.052;6.954;2023-04-03T03:54:39;10.48;;;6.63;;
817;SDS011;391;51.052;6.954;2023-04-03T03:56:43;7.03;;;6.23;;
817;SDS011;391;51.052;6.954;2023-04-03T03:58:47;8.80;;;4.90;;
817;SDS011;391;51.052;6.954;2023-04-03T04:00:51;3.37;;;3.07;;
817;SDS011;391;51.052;6.954;2023-04-03T04:02:56;4.53;;;3.23;;
817;SDS011;391;51.052;6.954;2023-04-03T04:05:02;3.67;;;3.30;;
817;SDS011;391;51.052;6.954;2023-04-03T04:07:05;3.53;;;3.22;;
817;SDS011;391;51.052;6.954;2023-04-03T04:09:10;4.80;;;3.50;;
817;SDS011;391;51.052;6.954;2023-04-03T04:11:14;2.90;;;2.70;;
817;SDS011;391;51.052;6.954;2023-04-03T04:13:18;2.10;;;1.90;;
817;SDS011;391;51.052;6.954;2023-04-03T04:15:22;3.65;;;3.00;;
817;SDS011;391;51.052;6.954;2023-04-03T04:17:28;6.03;;;2.77;;
817;SDS011;391;51.052;6.954;2023-04-03T04:19:34;7.23;;;5.00;;
817;SDS011;391;51.052;6.954;2023-04-03T04:21:38;7.97;;;6.00;;
817;SDS011;391;51.052;6.954;2023-04-03T04:23:43;7.43;;;4.80;;
817;SDS011;391;51.052;6.954;2023-04-03T04:25:50;5.90;;;3.88;;
817;SDS011;391;51.052;6.954;2023-04-03T04:27:56;4.03;;;3.63;;
817;SDS011;391;51.052;6.954;2023-04-03T04:29:59;3.90;;;3.05;;
817;SDS011;391;51.052;6.954;2023-04-03T04:32:03;3.53;;;3.13;;
817;SDS011;391;51.052;6.954;2023-04-03T04:34:07;7.60;;;6.32;;
817;SDS011;391;51.052;6.954;2023-04-03T04:36:13;4.15;;;3.40;;
817;SDS011;391;51.052;6.954;2023-04-03T04:38:19;4.60;;;3.60;;
817;SDS011;391;51.052;6.954;2023-04-03T04:40:25;3.33;;;2.95;;
817;SDS011;391;51.052;6.954;2023-04-03T04:42:29;5.30;;;2.93;;
817;SDS011;391;51.052;6.954;2023-04-03T04:44:33;5.10;;;4.60;;
817;SDS011;391;51.052;6.954;2023-04-03T04:46:36;10.88;;;6.32;;
817;SDS011;391;51.052;6.954;2023-04-03T04:48:41;7.43;;;4.90;;
817;SDS011;391;51.052;6.954;2023-04-03T04:50:46;10.90;;;5.32;;
817;SDS011;391;51.052;6.954;2023-04-03T04:52:50;5.05;;;3.38;;
817;SDS011;391;51.052;6.954;2023-04-03T04:54:54;4.55;;;2.85;;
817;SDS011;391;51.052;6.954;2023-04-03T04:56:58;2.50;;;2.30;;
817;SDS011;391;51.052;6.954;2023-04-03T04:59:03;2.95;;;2.65;;
817;SDS011;391;51.052;6.954;2023-04-03T05:01:08;2.92;;;2.42;;
817;SDS011;391;51.052;6.954;2023-04-03T05:03:27;4.05;;;2.33;;
817;SDS011;391;51.052;6.954;2023-04-03T05:05:31;2.80;;;2.00;;
817;SDS011;391;51.052;6.954;2023-04-03T05:07:37;3.08;;;2.13;;
817;SDS011;391;51.052;6.954;2023-04-03T05:09:42;5.10;;;2.88;;
817;SDS011;391;51.052;6.954;2023-04-03T05:11:47;1.80;;;1.70;;
817;SDS011;391;51.052;6.954;2023-04-03T05:13:53;3.45;;;2.20;;
817;SDS011;391;51.052;6.954;2023-04-03T05:15:59;2.33;;;1.38;;
817;SDS011;391;51.052;6.954;2023-04-03T05:18:03;4.80;;;1.98;;
817;SDS011;391;51.052;6.954;2023-04-03T05:20:07;2.08;;;1.75;;
817;SDS011;391;51.052;6.954;2023-04-03T05:22:13;2.85;;;2.65;;
817;SDS011;391;51.052;6.954;2023-04-03T05:24:19;1.85;;;1.70;;
817;SDS011;391;51.052;6.954;2023-04-03T05:26:24;2.38;;;2.17;;
817;SDS011;391;51.052;6.954;2023-04-03T05:28:28;2.25;;;1.88;;
817;SDS011;391;51.052;6.954;2023-04-03T05:30:32;1.73;;;1.63;;
817;SDS011;391;51.052;6.954;2023-04-03T05:32:38;3.13;;;1.90;;
817;SDS011;391;51.052;6.954;2023-04-03T05:34:49;3.33;;;2.28;;
817;SDS011;391;51.052;6.954;2023-04-03T05:36:54;3.58;;;2.35;;
817;SDS011;391;51.052;6.954;2023-04-03T05:38:58;1.80;;;1.38;;
817;SDS011;391;51.052;6.954;2023-04-03T05:41:02;2.33;;;2.13;;
817;SDS011;391;51.052;6.954;2023-04-03T05:43:07;3.03;;;2.00;;
817;SDS011;391;51.052;6.954;2023-04-03T05:45:14;2.38;;;1.75;;
817;SDS011;391;51.052;6.954;2023-04-03T05:47:19;2.33;;;1.95;;
817;SDS011;391;51.052;6.954;2023-04-03T05:49:23;4.25;;;2.65;;
817;SDS011;391;51.052;6.954;2023-04-03T05:51:28;4.40;;;3.03;;
817;SDS011;391;51.052;6.954;2023-04-03T05:53:38;2.47;;;2.22;;
817;SDS011;391;51.052;6.954;2023-04-03T05:55:42;4.60;;;1.90;;
817;SDS011;391;51.052;6.954;2023-04-03T05:57:46;2.25;;;1.85;;
817;SDS011;391;51.052;6.954;2023-04-03T05:59:51;2.70;;;2.15;;
817;SDS011;391;51.052;6.954;2023-04-03T06:01:56;2.10;;;1.90;;
817;SDS011;391;51.052;6.954;2023-04-03T06:03:59;4.15;;;2.38;;
817;SDS011;391;51.052;6.954;2023-04-03T06:06:04;3.25;;;2.10;;
817;SDS011;391;51.052;6.954;2023-04-03T06:08:08;2.20;;;1.60;;
817;SDS011;391;51.052;6.954;2023-04-03T06:10:12;3.25;;;1.70;;
817;SDS011;391;51.052;6.954;2023-04-03T06:12:15;3.28;;;1.65;;
817;SDS011;391;51.052;6.954;2023-04-03T06:14:19;2.72;;;1.80;;
817;SDS011;391;51.052;6.954;2023-04-03T06:16:24;2.25;;;2.05;;
817;SDS011;391;51.052;6.954;2023-04-03T06:18:27;4.45;;;2.00;;
817;SDS011;391;51.052;6.954;2023-04-03T06:20:31;2.63;;;2.42;;
817;SDS011;391;51.052;6.954;2023-04-03T06:22:34;4.13;;;2.03;;
817;SDS011;391;51.052;6.954;2023-04-03T06:24:39;2.58;;;1.85;;
817;SDS011;391;51.052;6.954;2023-04-03T06:26:42;3.35;;;2.17;;
817;SDS011;391;51.052;6.954;2023-04-03T06:28:46;2.90;;;1.92;;
817;SDS011;391;51.052;6.954;2023-04-03T06:30:50;2.93;;;1.97;;
817;SDS011;391;51.052;6.954;2023-04-03T06:32:55;2.77;;;2.47;;
817;SDS011;391;51.052;6.954;2023-04-03T06:34:58;4.25;;;2.97;;
817;SDS011;391;51.052;6.954;2023-04-03T06:37:02;3.80;;;2.47;;
817;SDS011;391;51.052;6.954;2023-04-03T06:39:05;6.17;;;3.10;;
817;SDS011;391;51.052;6.954;2023-04-03T06:41:09;3.20;;;2.70;;
817;SDS011;391;51.052;6.954;2023-04-03T06:43:13;6.03;;;2.70;;
817;SDS011;391;51.052;6.954;2023-04-03T06:45:16;3.70;;;2.40;;
817;SDS011;391;51.052;6.954;2023-04-03T06:47:22;2.20;;;1.93;;
817;SDS011;391;51.052;6.954;2023-04-03T06:49:27;2.00;;;1.60;;
817;SDS011;391;51.052;6.954;2023-04-03T06:51:30;3.73;;;3.37;;
817;SDS011;391;51.052;6.954;2023-04-03T06:53:34;4.67;;;2.50;;
817;SDS011;391;51.052;6.954;2023-04-03T06:55:38;2.87;;;1.77;;
817;SDS011;391;51.052;6.954;2023-04-03T06:57:41;3.43;;;1.90;;
817;SDS011;391;51.052;6.954;2023-04-03T06:59:45;1.70;;;1.50;;
817;SDS011;391;51.052;6.954;2023-04-03T07:01:49;3.37;;;1.77;;
817;SDS011;391;51.052;6.954;2023-04-03T07:03:52;5.23;;;2.50;;
817;SDS011;391;51.052;6.954;2023-04-03T07:05:58;2.60;;;1.63;;
817;SDS011;391;51.052;6.954;2023-04-03T07:08:02;3.13;;;2.37;;
817;SDS011;391;51.052;6.954;2023-04-03T07:10:06;4.30;;;2.13;;
817;SDS011;391;51.052;6.954;2023-04-03T07:12:15;4.30;;;1.93;;
817;SDS011;391;51.052;6.954;2023-04-03T07:14:18;3.90;;;2.37;;
817;SDS011;391;51.052;6.954;2023-04-03T07:16:23;2.10;;;1.60;;
817;SDS011;391;51.052;6.954;2023-04-03T07:18:27;2.23;;;1.80;;
817;SDS011;391;51.052;6.954;2023-04-03T07:20:31;7.17;;;2.10;;
817;SDS011;391;51.052;6.954;2023-04-03T07:22:36;3.17;;;1.90;;
817;SDS011;391;51.052;6.954;2023-04-03T07:24:40;3.63;;;1.70;;
817;SDS011;391;51.052;6.954;2023-04-03T07:26:43;2.10;;;1.67;;
817;SDS011;391;51.052;6.954;2023-04-03T07:28:48;1.47;;;1.37;;
817;SDS011;391;51.052;6.954;2023-04-03T07:30:52;2.03;;;1.57;;
817;SDS011;391;51.052;6.954;2023-04-03T07:33:02;2.90;;;2.03;;
817;SDS011;391;51.052;6.954;2023-04-03T07:35:06;2.50;;;1.67;;
817;SDS011;391;51.052;6.954;2023-04-03T07:37:10;1.90;;;1.50;;
817;SDS011;391;51.052;6.954;2023-04-03T07:39:16;3.10;;;1.50;;
817;SDS011;391;51.052;6.954;2023-04-03T07:41:19;3.27;;;1.80;;
817;SDS011;391;51.052;6.954;2023-04-03T07:43:24;2.30;;;1.37;;
817;SDS011;391;51.052;6.954;2023-04-03T07:45:28;2.00;;;1.80;;
817;SDS011;391;51.052;6.954;2023-04-03T07:47:33;1.20;;;1.00;;
817;SDS011;391;51.052;6.954;2023-04-03T07:49:36;1.80;;;1.20;;
817;SDS011;391;51.052;6.954;2023-04-03T07:51:42;3.20;;;2.10;;
817;SDS011;391;51.052;6.954;2023-04-03T07:53:45;3.03;;;1.40;;
817;SDS011;391;51.052;6.954;2023-04-03T07:55:51;3.23;;;1.57;;
817;SDS011;391;51.052;6.954;2023-04-03T07:57:57;5.70;;;2.00;;
817;SDS011;391;51.052;6.954;2023-04-03T08:00:01;2.47;;;1.33;;
817;SDS011;391;51.052;6.954;2023-04-03T08:02:15;3.03;;;1.27;;
817;SDS011;391;51.052;6.954;2023-04-03T08:04:19;1.50;;;1.20;;
817;SDS011;391;51.052;6.954;2023-04-03T08:06:23;2.00;;;1.77;;
817;SDS011;391;51.052;6.954;2023-04-03T08:08:47;1.40;;;1.23;;
817;SDS011;391;51.052;6.954;2023-04-03T08:10:52;1.33;;;1.10;;
817;SDS011;391;51.052;6.954;2023-04-03T08:12:56;2.87;;;1.50;;
817;SDS011;391;51.052;6.954;2023-04-03T08:14:59;5.03;;;3.20;;
817;SDS011;391;51.052;6.954;2023-04-03T08:17:03;1.30;;;1.07;;
817;SDS011;391;51.052;6.954;2023-04-03T08:19:07;5.77;;;1.50;;
817;SDS011;391;51.052;6.954;2023-04-03T08:21:23;2.30;;;1.23;;
817;SDS011;391;51.052;6.954;2023-04-03T08:23:27;2.00;;;1.10;;
817;SDS011;391;51.052;6.954;2023-04-03T08:25:30;2.60;;;1.70;;
817;SDS011;391;51.052;6.954;2023-04-03T08:27:36;1.13;;;1.00;;
817;SDS011;391;51.052;6.954;2023-04-03T08:29:39;2.50;;;1.20;;
817;SDS011;391;51.052;6.954;2023-04-03T08:31:43;1.67;;;1.10;;
817;SDS011;391;51.052;6.954;2023-04-03T08:33:47;1.73;;;1.07;;
817;SDS011;391;51.052;6.954;2023-04-03T08:35:51;2.33;;;1.07;;
817;SDS011;391;51.052;6.954;2023-04-03T08:37:54;1.33;;;1.23;;
817;SDS011;391;51.052;6.954;2023-04-03T08:39:58;1.80;;;1.10;;
817;SDS011;391;51.052;6.954;2023-04-03T08:42:02;3.10;;;1.33;;
817;SDS011;391;51.052;6.954;2023-04-03T08:44:17;2.57;;;1.23;;
817;SDS011;391;51.052;6.954;2023-04-03T08:46:31;2.60;;;1.23;;
817;SDS011;391;51.052;6.954;2023-04-03T08:48:43;3.13;;;1.27;;
817;SDS011;391;51.052;6.954;2023-04-03T08:50:47;1.37;;;1.10;;
817;SDS011;391;51.052;6.954;2023-04-03T08:52:55;4.93;;;1.40;;
817;SDS011;391;51.052;6.954;2023-04-03T08:55:00;1.87;;;1.07;;
817;SDS011;391;51.052;6.954;2023-04-03T08:57:06;1.60;;;1.30;;
817;SDS011;391;51.052;6.954;2023-04-03T08:59:11;3.20;;;1.60;;
817;SDS011;391;51.052;6.954;2023-04-03T09:01:33;1.70;;;1.07;;
817;SDS011;391;51.052;6.954;2023-04-03T09:03:39;1.80;;;1.10;;
817;SDS011;391;51.052;6.954;2023-04-03T09:05:45;2.57;;;1.60;;
817;SDS011;391;51.052;6.954;2023-04-03T09:07:53;4.50;;;1.40;;
817;SDS011;391;51.052;6.954;2023-04-03T09:10:03;1.70;;;1.17;;
817;SDS011;391;51.052;6.954;2023-04-03T09:12:11;1.83;;;1.03;;
817;SDS011;391;51.052;6.954;2023-04-03T09:14:21;3.17;;;1.13;;
817;SDS011;391;51.052;6.954;2023-04-03T09:16:39;2.90;;;1.30;;
817;SDS011;391;51.052;6.954;2023-04-03T09:18:51;1.80;;;1.00;;
817;SDS011;391;51.052;6.954;2023-04-03T09:21:01;1.77;;;1.50;;
817;SDS011;391;51.052;6.954;2023-04-03T09:23:15;3.63;;;1.53;;
817;SDS011;391;51.052;6.954;2023-04-03T09:25:26;2.50;;;1.10;;
817;SDS011;391;51.052;6.954;2023-04-03T09:27:33;2.47;;;1.20;;
817;SDS011;391;51.052;6.954;2023-04-03T09:29:37;3.37;;;1.17;;
817;SDS011;391;51.052;6.954;2023-04-03T09:31:46;1.40;;;0.90;;
817;SDS011;391;51.052;6.954;2023-04-03T09:33:52;3.40;;;1.23;;
817;SDS011;391;51.052;6.954;2023-04-03T09:35:59;1.90;;;1.00;;
817;SDS011;391;51.052;6.954;2023-04-03T09:38:14;1.77;;;1.00;;
817;SDS011;391;51.052;6.954;2023-04-03T09:40:32;1.70;;;0.90;;
817;SDS011;391;51.052;6.954;2023-04-03T09:42:40;2.13;;;1.00;;
817;SDS011;391;51.052;6.954;2023-04-03T09:44:52;2.10;;;1.10;;
817;SDS011;391;51.052;6.954;2023-04-03T09:46:59;2.23;;;1.10;;
817;SDS011;391;51.052;6.954;2023-04-03T09:49:20;1.90;;;1.10;;
817;SDS011;391;51.052;6.954;2023-04-03T09:51:24;2.70;;;1.10;;
817;SDS011;391;51.052;6.954;2023-04-03T09:53:32;1.43;;;1.07;;
817;SDS011;391;51.052;6.954;2023-04-03T09:55:41;1.40;;;1.10;;
817;SDS011;391;51.052;6.954;2023-04-03T09:57:46;2.40;;;1.17;;
817;SDS011;391;51.052;6.954;2023-04-03T09:59:56;2.03;;;1.00;;
817;SDS011;391;51.052;6.954;2023-04-03T10:02:04;1.30;;;1.00;;
817;SDS011;391;51.052;6.954;2023-04-03T10:04:25;2.00;;;0.97;;
817;SDS011;391;51.052;6.954;2023-04-03T10:06:40;1.53;;;1.10;;
817;SDS011;391;51.052;6.954;2023-04-03T10:08:51;1.10;;;0.97;;
817;SDS011;391;51.052;6.954;2023-04-03T10:11:06;5.37;;;1.67;;
817;SDS011;391;51.052;6.954;2023-04-03T10:13:13;7.30;;;1.50;;
817;SDS011;391;51.052;6.954;2023-04-03T10:15:22;1.77;;;1.10;;
817;SDS011;391;51.052;6.954;2023-04-03T10:17:40;2.77;;;1.20;;
817;SDS011;391;51.052;6.954;2023-04-03T10:19:54;3.93;;;1.07;;
817;SDS011;391;51.052;6.954;2023-04-03T10:22:02;1.67;;;1.07;;
817;SDS011;391;51.052;6.954;2023-04-03T10:24:13;2.43;;;0.90;;
817;SDS011;391;51.052;6.954;2023-04-03T10:26:23;1.77;;;0.90;;
817;SDS011;391;51.052;6.954;2023-04-03T10:28:38;2.27;;;1.20;;
817;SDS011;391;51.052;6.954;2023-04-03T10:30:48;4.80;;;1.50;;
817;SDS011;391;51.052;6.954;2023-04-03T10:33:00;2.03;;;1.40;;
817;SDS011;391;51.052;6.954;2023-04-03T10:35:18;2.73;;;1.40;;
817;SDS011;391;51.052;6.954;2023-04-03T10:37:29;2.50;;;1.00;;
817;SDS011;391;51.052;6.954;2023-04-03T10:39:39;2.70;;;1.27;;
817;SDS011;391;51.052;6.954;2023-04-03T10:41:54;2.40;;;1.30;;
817;SDS011;391;51.052;6.954;2023-04-03T10:44:20;1.70;;;1.03;;
817;SDS011;391;51.052;6.954;2023-04-03T10:46:33;3.13;;;1.33;;
817;SDS011;391;51.052;6.954;2023-04-03T10:48:46;3.00;;;2.00;;
817;SDS011;391;51.052;6.954;2023-04-03T10:51:00;4.60;;;1.53;;
817;SDS011;391;51.052;6.954;2023-04-03T10:53:12;3.10;;;1.70;;
817;SDS011;391;51.052;6.954;2023-04-03T10:55:24;1.20;;;1.07;;
817;SDS011;391;51.052;6.954;2023-04-03T10:57:34;3.00;;;1.50;;
817;SDS011;391;51.052;6.954;2023-04-03T10:59:38;1.23;;;0.80;;
817;SDS011;391;51.052;6.954;2023-04-03T11:01:48;2.07;;;1.23;;
817;SDS011;391;51.052;6.954;2023-04-03T11:03:56;3.97;;;3.27;;
817;SDS011;391;51.052;6.954;2023-04-03T11:06:02;5.00;;;1.73;;
817;SDS011;391;51.052;6.954;2023-04-03T11:08:12;4.43;;;2.53;;
817;SDS011;391;51.052;6.954;2023-04-03T11:10:23;1.40;;;1.00;;
817;SDS011;391;51.052;6.954;2023-04-03T11:12:36;1.60;;;0.90;;
817;SDS011;391;51.052;6.954;2023-04-03T11:14:45;4.20;;;3.80;;
817;SDS011;391;51.052;6.954;2023-04-03T11:16:55;18.57;;;16.83;;
817;SDS011;391;51.052;6.954;2023-04-03T11:19:14;2.40;;;1.53;;
817;SDS011;391;51.052;6.954;2023-04-03T11:21:24;1.57;;;1.10;;
817;SDS011;391;51.052;6.954;2023-04-03T11:23:32;0.83;;;0.70;;
817;SDS011;391;51.052;6.954;2023-04-03T11:25:51;1.57;;;0.90;;
817;SDS011;391;51.052;6.954;2023-04-03T11:27:58;1.50;;;0.70;;
817;SDS011;391;51.052;6.954;2023-04-03T11:30:05;2.10;;;0.80;;
817;SDS011;391;51.052;6.954;2023-04-03T11:32:28;1.60;;;0.73;;
817;SDS011;391;51.052;6.954;2023-04-03T11:34:51;4.93;;;1.00;;
817;SDS011;391;51.052;6.954;2023-04-03T11:36:58;1.20;;;1.03;;
817;SDS011;391;51.052;6.954;2023-04-03T11:39:07;2.30;;;1.60;;
817;SDS011;391;51.052;6.954;2023-04-03T11:41:20;1.83;;;1.07;;
817;SDS011;391;51.052;6.954;2023-04-03T11:43:29;1.30;;;1.10;;
817;SDS011;391;51.052;6.954;2023-04-03T11:45:36;2.00;;;1.10;;
817;SDS011;391;51.052;6.954;2023-04-03T11:47:45;2.30;;;1.07;;
817;SDS011;391;51.052;6.954;2023-04-03T11:49:52;2.20;;;1.00;;
817;SDS011;391;51.052;6.954;2023-04-03T11:51:58;1.77;;;0.70;;
817;SDS011;391;51.052;6.954;2023-04-03T11:56:46;1.40;;;1.03;;
817;SDS011;391;51.052;6.954;2023-04-03T12:01:45;1.90;;;0.93;;
817;SDS011;391;51.052;6.954;2023-04-03T12:08:59;0.90;;;0.80;;
817;SDS011;391;51.052;6.954;2023-04-03T12:11:15;1.47;;;0.90;;
817;SDS011;391;51.052;6.954;2023-04-03T12:13:28;1.30;;;0.80;;
817;SDS011;391;51.052;6.954;2023-04-03T12:17:53;2.40;;;1.27;;
817;SDS011;391;51.052;6.954;2023-04-03T12:19:57;1.30;;;0.83;;
817;SDS011;391;51.052;6.954;2023-04-03T12:22:13;1.50;;;1.00;;
817;SDS011;391;51.052;6.954;2023-04-03T12:24:26;0.90;;;0.77;;
817;SDS011;391;51.052;6.954;2023-04-03T12:26:34;1.97;;;1.00;;
817;SDS011;391;51.052;6.954;2023-04-03T12:28:50;1.63;;;0.87;;
817;SDS011;391;51.052;6.954;2023-04-03T12:30:55;1.50;;;0.90;;
817;SDS011;391;51.052;6.954;2023-04-03T12:33:04;1.30;;;0.90;;
817;SDS011;391;51.052;6.954;2023-04-03T12:35:27;1.10;;;0.70;;
817;SDS011;391;51.052;6.954;2023-04-03T12:40:37;1.90;;;0.70;;
817;SDS011;391;51.052;6.954;2023-04-03T12:45:24;1.10;;;0.70;;
817;SDS011;391;51.052;6.954;2023-04-03T12:47:29;2.30;;;1.07;;
817;SDS011;391;51.052;6.954;2023-04-03T12:49:38;1.83;;;0.90;;
817;SDS011;391;51.052;6.954;2023-04-03T12:51:44;1.10;;;0.90;;
817;SDS011;391;51.052;6.954;2023-04-03T12:53:49;1.47;;;1.10;;
817;SDS011;391;51.052;6.954;2023-04-03T12:58:24;1.30;;;1.20;;
817;SDS011;391;51.052;6.954;2023-04-03T13:00:33;2.30;;;0.93;;
817;SDS011;391;51.052;6.954;2023-04-03T13:02:40;1.30;;;1.07;;
817;SDS011;391;51.052;6.954;2023-04-03T13:04:48;2.10;;;0.90;;
817;SDS011;391;51.052;6.954;2023-04-03T13:06:52;2.13;;;1.13;;
817;SDS011;391;51.052;6.954;2023-04-03T13:08:56;2.70;;;1.20;;
817;SDS011;391;51.052;6.954;2023-04-03T13:11:02;2.63;;;1.30;;
817;SDS011;391;51.052;6.954;2023-04-03T13:13:14;1.90;;;0.90;;
817;SDS011;391;51.052;6.954;2023-04-03T13:15:19;1.27;;;0.97;;
817;SDS011;391;51.052;6.954;2023-04-03T13:17:24;1.30;;;0.90;;
817;SDS011;391;51.052;6.954;2023-04-03T13:19:30;1.90;;;1.10;;
817;SDS011;391;51.052;6.954;2023-04-03T13:21:33;1.70;;;1.00;;
817;SDS011;391;51.052;6.954;2023-04-03T13:23:38;1.20;;;1.10;;
817;SDS011;391;51.052;6.954;2023-04-03T13:25:45;2.73;;;1.30;;
817;SDS011;391;51.052;6.954;2023-04-03T13:27:50;2.00;;;1.17;;
817;SDS011;391;51.052;6.954;2023-04-03T13:30:23;1.73;;;1.03;;
817;SDS011;391;51.052;6.954;2023-04-03T13:32:30;1.40;;;0.83;;
817;SDS011;391;51.052;6.954;2023-04-03T13:34:36;2.17;;;1.33;;
817;SDS011;391;51.052;6.954;2023-04-03T13:36:42;1.20;;;0.93;;
817;SDS011;391;51.052;6.954;2023-04-03T13:38:57;1.23;;;0.87;;
817;SDS011;391;51.052;6.954;2023-04-03T13:41:02;1.10;;;0.90;;
817;SDS011;391;51.052;6.954;2023-04-03T13:43:24;1.27;;;0.80;;
817;SDS011;391;51.052;6.954;2023-04-03T13:45:31;2.97;;;1.10;;
817;SDS011;391;51.052;6.954;2023-04-03T13:47:38;1.67;;;1.00;;
817;SDS011;391;51.052;6.954;2023-04-03T13:49:43;2.93;;;1.60;;
817;SDS011;391;51.052;6.954;2023-04-03T13:51:48;2.03;;;1.13;;
817;SDS011;391;51.052;6.954;2023-04-03T13:54:13;1.40;;;1.00;;